createdAt,value
2018-03-29T00:01:34.166Z,3.80
2018-03-29T00:04:00.280Z,4.30
2018-03-29T00:06:26.356Z,4.33
2018-03-29T00:08:52.387Z,4.30
2018-03-29T00:11:18.419Z,2.87
2018-03-29T00:13:44.489Z,3.50
2018-03-29T00:16:10.477Z,4.60
2018-03-29T00:18:36.505Z,3.63
2018-03-29T00:21:02.562Z,6.23
2018-03-29T00:23:28.604Z,6.13
2018-03-29T00:25:54.652Z,3.60
2018-03-29T00:28:20.690Z,3.20
2018-03-29T00:30:46.726Z,5.00
2018-03-29T00:33:12.686Z,3.90
2018-03-29T00:35:38.682Z,6.17
2018-03-29T00:38:04.717Z,3.90
2018-03-29T00:40:30.823Z,3.63
2018-03-29T00:42:56.869Z,3.40
2018-03-29T00:45:22.914Z,3.93
2018-03-29T00:47:49.017Z,2.90
2018-03-29T00:50:15.052Z,3.30
2018-03-29T00:52:41.058Z,4.13
2018-03-29T00:55:07.056Z,3.93
2018-03-29T00:57:33.117Z,4.00
2018-03-29T00:59:59.129Z,3.43
2018-03-29T01:02:25.181Z,3.80
2018-03-29T01:04:51.251Z,3.90
2018-03-29T01:07:17.334Z,3.67
2018-03-29T01:09:43.378Z,3.63
2018-03-29T01:12:09.474Z,3.80
2018-03-29T01:14:35.506Z,3.30
2018-03-29T01:17:01.555Z,3.73
2018-03-29T01:19:27.599Z,4.03
2018-03-29T01:21:53.643Z,4.50
2018-03-29T01:24:19.663Z,4.80
2018-03-29T01:26:45.680Z,3.07
2018-03-29T01:29:11.690Z,3.90
2018-03-29T01:31:37.694Z,2.67
2018-03-29T01:34:03.725Z,3.90
2018-03-29T01:36:29.749Z,4.10
2018-03-29T01:38:55.850Z,4.43
2018-03-29T01:41:21.881Z,4.43
2018-03-29T01:43:48.468Z,6.00
2018-03-29T01:46:14.487Z,4.57
2018-03-29T01:48:40.488Z,4.03
2018-03-29T01:51:06.502Z,3.23
2018-03-29T01:53:33.482Z,4.37
2018-03-29T01:55:59.522Z,4.63
2018-03-29T01:58:25.525Z,6.50
2018-03-29T02:00:51.530Z,4.47
2018-03-29T02:03:17.542Z,4.13
2018-03-29T02:05:43.570Z,4.00
2018-03-29T02:08:09.546Z,4.20
2018-03-29T02:10:35.617Z,4.93
2018-03-29T02:13:01.681Z,4.23
2018-03-29T02:15:27.699Z,3.93
2018-03-29T02:17:53.738Z,4.43
2018-03-29T02:20:19.708Z,4.40
2018-03-29T02:22:45.755Z,4.77
2018-03-29T02:25:11.782Z,4.10
2018-03-29T02:27:37.760Z,4.13
2018-03-29T02:30:04.163Z,4.67
2018-03-29T02:32:30.215Z,4.13
2018-03-29T02:34:56.234Z,9.60
2018-03-29T02:37:22.274Z,3.97
2018-03-29T02:39:48.312Z,4.63
2018-03-29T02:42:14.319Z,5.10
2018-03-29T02:44:40.358Z,4.30
2018-03-29T02:47:06.412Z,7.20
2018-03-29T02:49:32.472Z,8.80
2018-03-29T02:51:58.526Z,7.70
2018-03-29T02:54:24.557Z,5.67
2018-03-29T02:56:50.563Z,7.27
2018-03-29T02:59:16.617Z,5.87
2018-03-29T03:01:42.655Z,5.90
2018-03-29T03:04:08.737Z,6.53
2018-03-29T03:06:34.747Z,6.70
2018-03-29T03:09:00.746Z,6.63
2018-03-29T03:11:26.790Z,8.17
2018-03-29T03:13:52.821Z,5.73
2018-03-29T03:16:18.856Z,6.37
2018-03-29T03:18:44.886Z,7.30
2018-03-29T03:21:10.965Z,8.90
2018-03-29T03:23:37.019Z,7.50
2018-03-29T03:26:03.001Z,6.33
2018-03-29T03:28:29.030Z,6.23
2018-03-29T03:30:55.069Z,7.27
2018-03-29T03:33:21.090Z,7.00
2018-03-29T03:35:47.111Z,7.40
2018-03-29T03:38:13.157Z,6.50
2018-03-29T03:40:39.193Z,5.87
2018-03-29T03:43:05.244Z,5.87
2018-03-29T03:45:31.269Z,6.13
2018-03-29T03:47:57.300Z,8.27
2018-03-29T03:50:23.309Z,6.10
2018-03-29T03:52:49.308Z,5.40
2018-03-29T03:55:15.309Z,4.53
2018-03-29T03:57:41.381Z,6.30
2018-03-29T04:00:07.394Z,6.90
2018-03-29T04:02:33.390Z,7.07
2018-03-29T04:04:59.449Z,9.37
2018-03-29T04:07:25.511Z,7.37
2018-03-29T04:09:51.616Z,6.97
2018-03-29T04:12:17.657Z,8.37
2018-03-29T04:14:43.693Z,8.17
2018-03-29T04:17:09.744Z,6.43
2018-03-29T04:19:35.892Z,6.77
2018-03-29T04:22:01.910Z,6.13
2018-03-29T04:24:27.970Z,7.13
2018-03-29T04:26:53.945Z,5.77
2018-03-29T04:29:19.997Z,6.13
2018-03-29T04:31:46.115Z,5.67
2018-03-29T04:34:12.150Z,5.03
2018-03-29T04:36:38.166Z,4.87
2018-03-29T04:39:04.121Z,5.13
2018-03-29T04:41:30.160Z,5.00
2018-03-29T04:43:56.202Z,6.27
2018-03-29T04:46:22.274Z,5.00
2018-03-29T04:48:48.317Z,5.13
2018-03-29T04:51:14.398Z,5.47
2018-03-29T04:53:40.430Z,4.67
2018-03-29T04:56:06.528Z,5.80
2018-03-29T04:58:32.566Z,6.37
2018-03-29T05:00:58.602Z,5.57
2018-03-29T05:03:24.592Z,5.30
2018-03-29T05:05:50.624Z,5.93
2018-03-29T05:08:16.734Z,5.53
2018-03-29T05:10:42.828Z,6.03
2018-03-29T05:13:08.917Z,4.83
2018-03-29T05:15:34.910Z,5.47
2018-03-29T05:18:01.029Z,5.67
2018-03-29T05:20:27.325Z,4.57
2018-03-29T05:22:53.346Z,5.20
2018-03-29T05:25:19.401Z,4.37
2018-03-29T05:27:51.485Z,4.40
2018-03-29T05:30:17.597Z,6.33
2018-03-29T05:32:43.610Z,5.20
2018-03-29T05:35:09.646Z,4.13
2018-03-29T05:37:35.709Z,5.67
2018-03-29T05:40:02.236Z,5.70
2018-03-29T05:42:28.266Z,4.33
2018-03-29T05:44:54.293Z,4.77
2018-03-29T05:47:20.366Z,6.17
2018-03-29T05:49:46.374Z,4.83
2018-03-29T05:52:12.413Z,5.47
2018-03-29T05:54:38.350Z,4.80
2018-03-29T05:57:04.388Z,4.30
2018-03-29T05:59:30.401Z,6.47
2018-03-29T06:01:56.449Z,4.77
2018-03-29T06:04:22.398Z,3.97
2018-03-29T06:06:48.357Z,5.27
2018-03-29T06:09:14.410Z,4.90
2018-03-29T06:11:40.432Z,5.50
2018-03-29T06:14:06.512Z,5.73
2018-03-29T06:16:38.457Z,5.50
2018-03-29T06:19:08.428Z,5.00
2018-03-29T06:21:34.476Z,5.17
2018-03-29T06:24:00.550Z,4.73
2018-03-29T06:26:26.577Z,5.13
2018-03-29T06:28:52.598Z,4.17
2018-03-29T06:31:18.645Z,4.63
2018-03-29T06:33:44.647Z,4.10
2018-03-29T06:36:10.685Z,5.27
2018-03-29T06:38:36.685Z,3.90
2018-03-29T06:41:02.730Z,4.23
2018-03-29T06:43:28.750Z,4.33
2018-03-29T06:45:54.810Z,4.23
2018-03-29T06:48:20.843Z,4.53
2018-03-29T06:50:46.853Z,3.73
2018-03-29T06:53:12.898Z,4.60
2018-03-29T06:55:38.835Z,3.67
2018-03-29T06:58:04.861Z,3.80
2018-03-29T07:00:30.871Z,4.60
2018-03-29T07:02:56.889Z,4.10
2018-03-29T07:05:22.933Z,4.07
2018-03-29T07:07:48.989Z,3.43
2018-03-29T07:10:15.029Z,4.33
2018-03-29T07:12:41.021Z,4.40
2018-03-29T07:15:07.065Z,3.30
2018-03-29T07:17:33.087Z,4.57
2018-03-29T07:19:59.111Z,4.00
2018-03-29T07:22:25.134Z,4.17
2018-03-29T07:24:51.205Z,3.97
2018-03-29T07:27:17.207Z,3.67
2018-03-29T07:29:43.255Z,3.80
2018-03-29T07:32:09.260Z,4.13
2018-03-29T07:34:35.279Z,3.83
2018-03-29T07:37:01.416Z,6.27
2018-03-29T07:39:27.430Z,3.93
2018-03-29T07:41:53.443Z,3.90
2018-03-29T07:44:19.523Z,4.30
2018-03-29T07:46:45.566Z,3.10
2018-03-29T07:49:11.560Z,3.70
2018-03-29T07:51:37.587Z,3.30
2018-03-29T07:54:03.761Z,4.23
2018-03-29T07:56:29.786Z,4.20
2018-03-29T07:58:55.829Z,5.20
2018-03-29T08:01:21.878Z,3.90
2018-03-29T08:03:47.885Z,3.93
2018-03-29T08:06:13.976Z,5.37
2018-03-29T08:08:40.084Z,4.60
2018-03-29T08:11:06.179Z,5.50
2018-03-29T08:13:32.223Z,5.13
2018-03-29T08:15:58.241Z,3.77
2018-03-29T08:18:24.297Z,3.70
2018-03-29T08:20:50.379Z,4.53
2018-03-29T08:23:16.404Z,6.97
2018-03-29T08:25:42.428Z,4.73
2018-03-29T08:28:08.484Z,3.87
2018-03-29T08:30:34.520Z,4.53
2018-03-29T08:33:00.546Z,4.67
2018-03-29T08:35:26.605Z,3.50
2018-03-29T08:37:52.717Z,5.57
2018-03-29T08:40:18.818Z,4.80
2018-03-29T08:42:44.854Z,4.40
2018-03-29T08:45:10.888Z,4.30
2018-03-29T08:47:36.950Z,3.53
2018-03-29T08:50:03.416Z,3.20
2018-03-29T08:52:29.418Z,5.20
2018-03-29T08:54:55.496Z,7.17
2018-03-29T08:57:21.502Z,13.57
2018-03-29T08:59:47.526Z,6.50
2018-03-29T09:02:14.019Z,5.60
2018-03-29T09:04:40.074Z,4.80
2018-03-29T09:07:06.103Z,5.40
2018-03-29T09:09:32.145Z,4.50
2018-03-29T09:11:58.258Z,3.40
2018-03-29T09:14:24.284Z,4.10
2018-03-29T09:16:50.282Z,3.40
2018-03-29T09:19:16.319Z,3.80
2018-03-29T09:21:42.309Z,3.23
2018-03-29T09:24:08.357Z,3.80
2018-03-29T09:26:34.382Z,4.60
2018-03-29T09:29:02.654Z,5.67
2018-03-29T09:31:28.675Z,3.83
2018-03-29T09:33:54.839Z,6.03
2018-03-29T09:36:20.878Z,4.97
2018-03-29T09:38:46.914Z,3.90
2018-03-29T09:41:12.976Z,4.70
2018-03-29T09:43:39.007Z,4.73
2018-03-29T09:46:05.075Z,4.43
2018-03-29T09:48:31.279Z,4.57
2018-03-29T09:50:57.275Z,5.97
2018-03-29T09:53:23.307Z,5.10
2018-03-29T09:55:49.402Z,5.57
2018-03-29T09:58:15.424Z,4.20
2018-03-29T10:00:41.554Z,3.97
2018-03-29T10:03:08.713Z,6.87
2018-03-29T10:05:37.843Z,4.17
2018-03-29T10:08:14.730Z,4.97
2018-03-29T10:10:40.790Z,4.50
2018-03-29T10:13:06.788Z,4.67
2018-03-29T10:15:32.810Z,4.03
2018-03-29T10:17:58.800Z,6.00
2018-03-29T10:20:24.832Z,4.80
2018-03-29T10:22:50.872Z,6.00
2018-03-29T10:25:16.893Z,3.67
2018-03-29T10:27:42.861Z,4.43
2018-03-29T10:30:08.904Z,4.47
2018-03-29T10:32:34.894Z,7.77
2018-03-29T10:35:00.881Z,4.30
2018-03-29T10:37:26.909Z,5.07
2018-03-29T10:39:52.950Z,4.20
2018-03-29T10:42:19.038Z,5.10
2018-03-29T10:44:45.115Z,5.40
2018-03-29T10:47:11.206Z,5.90
2018-03-29T10:49:37.230Z,6.20
2018-03-29T10:52:03.262Z,4.47
2018-03-29T10:54:29.274Z,5.07
2018-03-29T10:56:55.280Z,5.03
2018-03-29T10:59:21.222Z,5.53
2018-03-29T11:01:47.328Z,4.80
2018-03-29T11:04:13.333Z,5.10
2018-03-29T11:06:39.416Z,8.10
2018-03-29T11:09:05.459Z,7.00
2018-03-29T11:11:31.486Z,8.00
2018-03-29T11:13:57.518Z,4.13
2018-03-29T11:16:23.610Z,5.60
2018-03-29T11:18:49.645Z,8.70
2018-03-29T11:21:15.726Z,6.40
2018-03-29T11:23:41.739Z,5.03
2018-03-29T11:26:07.793Z,5.50
2018-03-29T11:28:33.833Z,6.23
2018-03-29T11:30:59.929Z,6.47
2018-03-29T11:33:26.029Z,6.40
2018-03-29T11:35:52.089Z,6.77
2018-03-29T11:38:18.149Z,5.43
2018-03-29T11:40:44.237Z,4.80
2018-03-29T11:43:10.246Z,9.40
2018-03-29T11:45:36.312Z,5.00
2018-03-29T11:48:02.413Z,5.23
2018-03-29T11:50:28.437Z,7.30
2018-03-29T11:52:54.451Z,4.40
2018-03-29T11:55:20.606Z,4.90
2018-03-29T11:57:46.624Z,4.47
2018-03-29T12:00:12.662Z,4.97
2018-03-29T12:02:38.757Z,4.87
2018-03-29T12:05:04.847Z,6.53
2018-03-29T12:07:30.853Z,6.23
2018-03-29T12:09:56.892Z,4.87
2018-03-29T12:12:22.926Z,4.50
2018-03-29T12:14:48.966Z,5.53
2018-03-29T12:17:15.462Z,5.40
2018-03-29T12:19:41.504Z,5.07
2018-03-29T12:22:07.556Z,6.20
2018-03-29T12:24:33.661Z,6.33
2018-03-29T12:26:59.696Z,6.47
2018-03-29T12:29:25.762Z,6.13
2018-03-29T12:31:51.756Z,6.30
2018-03-29T12:34:17.958Z,6.80
2018-03-29T12:36:44.026Z,6.33
2018-03-29T12:39:10.101Z,5.93
2018-03-29T12:41:36.185Z,6.10
2018-03-29T12:44:02.260Z,6.80
2018-03-29T12:46:28.328Z,5.37
2018-03-29T12:48:54.332Z,4.93
2018-03-29T12:51:20.309Z,4.57
2018-03-29T12:53:46.406Z,9.60
2018-03-29T12:59:16.736Z,5.37
2018-03-29T13:01:42.777Z,5.63
2018-03-29T13:04:08.820Z,5.03
2018-03-29T13:06:34.905Z,5.97
2018-03-29T13:09:00.889Z,6.53
2018-03-29T13:11:26.965Z,6.13
2018-03-29T13:13:52.981Z,6.83
2018-03-29T13:16:18.999Z,10.30
2018-03-29T13:18:45.093Z,6.00
2018-03-29T13:21:11.070Z,7.03
2018-03-29T13:23:37.137Z,5.77
2018-03-29T13:26:03.164Z,5.67
2018-03-29T13:28:29.314Z,5.80
2018-03-29T13:30:55.326Z,6.47
2018-03-29T13:33:21.448Z,6.50
2018-03-29T13:35:47.455Z,6.70
2018-03-29T13:38:13.453Z,6.33
2018-03-29T13:40:39.437Z,6.27
2018-03-29T13:43:05.577Z,5.47
2018-03-29T13:45:31.599Z,4.60
2018-03-29T13:47:57.649Z,5.67
2018-03-29T13:50:23.741Z,4.80
2018-03-29T13:52:49.838Z,3.67
2018-03-29T13:55:15.881Z,4.40
2018-03-29T13:57:41.984Z,4.27
2018-03-29T14:00:08.129Z,3.90
2018-03-29T14:02:34.185Z,4.00
2018-03-29T14:05:00.295Z,5.43
2018-03-29T14:07:26.398Z,3.87
2018-03-29T14:09:52.476Z,5.20
2018-03-29T14:12:18.523Z,5.10
2018-03-29T14:14:44.550Z,4.40
2018-03-29T14:17:10.593Z,5.20
2018-03-29T14:19:36.726Z,5.27
2018-03-29T14:22:02.753Z,4.93
2018-03-29T14:24:28.764Z,5.93
2018-03-29T14:26:54.803Z,5.13
2018-03-29T14:29:20.883Z,3.73
2018-03-29T14:31:46.914Z,3.87
2018-03-29T14:34:12.973Z,8.40
2018-03-29T14:36:39.013Z,4.30
2018-03-29T14:39:05.053Z,6.00
2018-03-29T14:41:31.308Z,4.30
2018-03-29T14:43:57.297Z,2.87
2018-03-29T14:46:23.354Z,4.47
2018-03-29T14:48:49.357Z,5.90
2018-03-29T14:51:15.410Z,3.87
2018-03-29T14:53:41.455Z,4.60
2018-03-29T14:56:07.505Z,5.50
2018-03-29T14:58:33.521Z,7.80
2018-03-29T15:01:00.008Z,8.37
2018-03-29T15:03:25.966Z,5.10
2018-03-29T15:05:51.989Z,4.63
2018-03-29T15:08:18.019Z,4.50
2018-03-29T15:10:44.079Z,4.90
2018-03-29T15:13:10.087Z,4.47
2018-03-29T15:15:36.130Z,3.20
2018-03-29T15:18:02.143Z,4.60
2018-03-29T15:20:28.186Z,4.70
2018-03-29T15:22:54.282Z,8.07
2018-03-29T15:25:20.407Z,7.40
2018-03-29T15:27:46.455Z,3.30
2018-03-29T15:30:12.826Z,4.10
2018-03-29T15:32:39.014Z,4.07
2018-03-29T15:35:05.198Z,4.67
2018-03-29T15:37:31.271Z,5.73
2018-03-29T15:39:57.301Z,4.83
2018-03-29T15:42:23.346Z,5.40
2018-03-29T15:44:49.384Z,6.63
2018-03-29T15:47:15.470Z,4.10
2018-03-29T15:49:41.536Z,4.97
2018-03-29T15:52:07.566Z,4.07
2018-03-29T15:54:33.631Z,5.80
2018-03-29T15:56:59.645Z,3.63
2018-03-29T15:59:25.702Z,5.47
2018-03-29T16:01:51.834Z,4.43
2018-03-29T16:04:17.996Z,3.37
2018-03-29T16:06:44.078Z,3.73
2018-03-29T16:09:10.137Z,4.87
2018-03-29T16:11:36.181Z,4.63
2018-03-29T16:14:02.329Z,5.53
2018-03-29T16:16:28.381Z,14.23
2018-03-29T16:18:54.402Z,6.00
2018-03-29T16:21:20.593Z,9.33
2018-03-29T16:23:46.655Z,18.87
2018-03-29T16:26:12.705Z,24.57
2018-03-29T16:28:38.786Z,4.03
2018-03-29T16:31:04.842Z,4.93
2018-03-29T16:33:30.885Z,5.17
2018-03-29T16:35:56.980Z,5.63
2018-03-29T16:38:23.061Z,4.20
2018-03-29T16:40:49.146Z,4.80
2018-03-29T16:43:15.243Z,5.87
2018-03-29T16:45:41.284Z,8.67
2018-03-29T16:48:07.717Z,5.47
2018-03-29T16:50:33.743Z,3.57
2018-03-29T16:52:59.927Z,3.93
2018-03-29T16:55:25.940Z,4.70
2018-03-29T16:57:52.036Z,4.57
2018-03-29T17:00:18.139Z,3.87
2018-03-29T17:02:44.173Z,3.57
2018-03-29T17:05:10.182Z,4.03
2018-03-29T17:07:36.216Z,8.23
2018-03-29T17:10:02.635Z,5.13
2018-03-29T17:12:28.879Z,4.30
2018-03-29T17:14:54.957Z,6.60
2018-03-29T17:17:20.970Z,6.63
2018-03-29T17:19:47.176Z,7.30
2018-03-29T17:22:13.209Z,5.10
2018-03-29T17:24:39.321Z,9.70
2018-03-29T17:27:05.360Z,4.47
2018-03-29T17:29:31.385Z,5.70
2018-03-29T17:31:57.506Z,6.27
2018-03-29T17:34:24.473Z,5.60
2018-03-29T17:36:50.584Z,4.50
2018-03-29T17:39:16.642Z,6.13
2018-03-29T17:41:42.678Z,5.33
2018-03-29T17:44:08.734Z,9.60
2018-03-29T17:46:34.794Z,10.70
2018-03-29T17:49:00.830Z,8.90
2018-03-29T17:51:27.168Z,7.80
2018-03-29T17:53:53.258Z,5.80
2018-03-29T17:56:19.583Z,7.10
2018-03-29T17:58:45.599Z,5.57
2018-03-29T18:01:11.674Z,9.37
2018-03-29T18:03:37.744Z,59.97
2018-03-29T18:06:03.769Z,46.33
2018-03-29T18:08:29.827Z,34.00
2018-03-29T18:10:55.889Z,25.73
2018-03-29T18:13:21.921Z,30.23
2018-03-29T18:15:47.940Z,45.50
2018-03-29T18:18:14.038Z,51.40
2018-03-29T18:20:40.155Z,45.30
2018-03-29T18:23:06.171Z,26.97
2018-03-29T18:25:32.277Z,14.97
2018-03-29T18:27:58.334Z,9.77
2018-03-29T18:30:24.447Z,10.33
2018-03-29T18:32:50.480Z,9.73
2018-03-29T18:35:16.530Z,7.73
2018-03-29T18:37:42.570Z,12.20
2018-03-29T18:40:08.638Z,5.20
2018-03-29T18:42:34.701Z,15.80
2018-03-29T18:45:00.723Z,12.17
2018-03-29T18:47:26.769Z,14.80
2018-03-29T18:49:52.831Z,10.87
2018-03-29T18:52:18.853Z,6.50
2018-03-29T18:54:44.909Z,15.50
2018-03-29T18:57:10.980Z,16.03
2018-03-29T18:59:37.841Z,13.37
2018-03-29T19:05:17.987Z,8.00
2018-03-29T19:07:44.116Z,14.13
2018-03-29T19:10:13.095Z,10.53
2018-03-29T19:12:39.160Z,9.80
2018-03-29T19:15:05.215Z,5.30
2018-03-29T19:17:31.245Z,5.60
2018-03-29T19:19:57.335Z,8.03
2018-03-29T19:22:23.380Z,10.83
2018-03-29T19:24:49.424Z,13.90
2018-03-29T19:27:15.539Z,7.00
2018-03-29T19:29:41.617Z,9.37
2018-03-29T19:32:07.694Z,13.40
2018-03-29T19:34:33.795Z,11.00
2018-03-29T19:36:59.832Z,11.87
2018-03-29T19:39:25.843Z,13.70
2018-03-29T19:41:51.904Z,11.33
2018-03-29T19:44:17.978Z,13.47
2018-03-29T19:46:44.112Z,10.37
2018-03-29T19:49:10.169Z,11.20
2018-03-29T19:51:36.267Z,16.23
2018-03-29T19:54:02.350Z,16.03
2018-03-29T19:56:28.389Z,12.17
2018-03-29T19:58:54.453Z,15.83
2018-03-29T20:01:20.513Z,30.07
2018-03-29T20:03:46.589Z,48.77
2018-03-29T20:06:12.717Z,27.97
2018-03-29T20:08:38.849Z,26.47
2018-03-29T20:11:04.906Z,17.50
2018-03-29T20:13:30.943Z,13.60
2018-03-29T20:15:57.018Z,9.93
2018-03-29T20:18:23.107Z,9.60
2018-03-29T20:20:49.133Z,5.80
2018-03-29T20:23:15.401Z,5.27
2018-03-29T20:25:41.516Z,7.40
2018-03-29T20:28:07.534Z,6.60
2018-03-29T20:30:33.592Z,15.90
2018-03-29T20:32:59.646Z,8.07
2018-03-29T20:35:25.720Z,7.23
2018-03-29T20:37:51.751Z,7.67
2018-03-29T20:40:17.884Z,9.47
2018-03-29T20:42:43.910Z,7.13
2018-03-29T20:45:09.989Z,7.23
2018-03-29T20:47:36.060Z,7.03
2018-03-29T20:50:02.175Z,5.80
2018-03-29T20:52:28.363Z,5.93
2018-03-29T20:54:54.430Z,6.47
2018-03-29T20:57:20.506Z,5.20
2018-03-29T20:59:46.557Z,8.53
2018-03-29T21:02:12.665Z,9.67
2018-03-29T21:04:38.718Z,7.90
2018-03-29T21:07:04.789Z,7.47
2018-03-29T21:09:30.845Z,7.27
2018-03-29T21:11:56.983Z,9.17
2018-03-29T21:14:23.051Z,6.97
2018-03-29T21:16:49.085Z,8.80
2018-03-29T21:19:15.132Z,6.30
2018-03-29T21:21:41.201Z,6.93
2018-03-29T21:24:07.289Z,6.67
2018-03-29T21:26:33.370Z,6.57
2018-03-29T21:28:59.495Z,7.00
2018-03-29T21:31:25.497Z,8.53
2018-03-29T21:33:51.622Z,8.07
2018-03-29T21:36:17.671Z,14.97
2018-03-29T21:38:43.682Z,18.37
2018-03-29T21:41:09.778Z,16.30
2018-03-29T21:43:35.839Z,25.20
2018-03-29T21:46:01.895Z,25.33
2018-03-29T21:48:27.991Z,35.47
2018-03-29T21:50:54.054Z,52.63
2018-03-29T21:53:20.139Z,73.67
2018-03-29T21:55:46.261Z,51.83
2018-03-29T21:58:12.248Z,25.10
2018-03-29T22:00:38.343Z,25.90
2018-03-29T22:03:04.403Z,26.07
2018-03-29T22:05:30.489Z,22.37
2018-03-29T22:07:56.587Z,15.10
2018-03-29T22:10:22.626Z,22.33
2018-03-29T22:12:48.663Z,32.30
2018-03-29T22:15:14.723Z,29.60
2018-03-29T22:17:40.889Z,20.07
2018-03-29T22:20:06.856Z,18.50
2018-03-29T22:22:32.954Z,11.87
2018-03-29T22:24:59.004Z,10.03
2018-03-29T22:27:25.030Z,7.90
2018-03-29T22:29:51.154Z,11.47
2018-03-29T22:32:17.173Z,34.03
2018-03-29T22:34:43.289Z,34.63
2018-03-29T22:37:09.324Z,30.53
2018-03-29T22:39:35.377Z,20.73
2018-03-29T22:42:01.381Z,26.90
2018-03-29T22:44:27.422Z,20.43
2018-03-29T22:46:53.484Z,20.40
2018-03-29T22:49:19.518Z,15.47
2018-03-29T22:51:45.573Z,17.00
2018-03-29T22:54:11.670Z,20.07
2018-03-29T22:56:37.692Z,12.43
2018-03-29T22:59:03.702Z,9.40
2018-03-29T23:01:29.843Z,14.40
2018-03-29T23:03:55.897Z,8.87
2018-03-29T23:06:21.948Z,16.23
2018-03-29T23:08:47.992Z,8.70
2018-03-29T23:11:14.057Z,9.03
2018-03-29T23:13:40.120Z,8.60
2018-03-29T23:16:06.207Z,7.60
2018-03-29T23:18:32.234Z,5.67
2018-03-29T23:20:58.292Z,7.70
2018-03-29T23:23:24.851Z,5.80
2018-03-29T23:25:50.837Z,5.90
2018-03-29T23:28:16.889Z,5.40
2018-03-29T23:30:42.937Z,8.07
2018-03-29T23:33:08.945Z,7.17
2018-03-29T23:35:34.958Z,9.07
2018-03-29T23:38:01.018Z,8.30
2018-03-29T23:40:27.045Z,8.43
2018-03-29T23:42:53.090Z,9.70
2018-03-29T23:45:19.161Z,7.00
2018-03-29T23:47:45.222Z,8.93
2018-03-29T23:50:11.245Z,22.53
2018-03-29T23:52:37.294Z,9.50
2018-03-29T23:55:03.780Z,12.30
2018-03-29T23:57:29.818Z,12.20
2018-03-29T23:59:55.811Z,11.13
